Latest Weather Observations for Point Perpendicular

IDN60801

Issued at 10:32 pm EST Wednesday 26 September 2018 (issued every 10 minutes, with the page automatically refreshed every 10 minutes)

About weather observations | Map of weather stations | Latest weather observations for NSW | Other Formats
Station Details ID: 068151 Name: POINT PERPENDICULAR AWS Lat: -35.09 Lon: 150.80 Height: 85.0 m
Data from the previous 72 hours. | See also: Recent months at Point Perpendicular
Date/Time
EST
Temp
°C
App
Temp
°C
Dew
Point
°C
Rel
Hum
%
Delta-T
°C
Wind Press
QNH
hPa
Press
MSL
hPa
Rain since
9am
mm
Dir  Spd
km/h
Gust
km/h
Spd
kts
Gust
kts
26/10:30pm 10.7 10.1 9.1 90 0.8 WNW 2 4 1 2 1023.2 1023.2 7.0
26/10:00pm 11.1 10.6 9.2 88 0.9 W 2 2 1 1 1023.3 1023.3 7.0
26/09:30pm 11.2 10.4 9.5 89 0.9 WSW 4 7 2 4 1023.6 1023.5 7.0
26/09:00pm 11.2 9.8 9.5 89 0.9 WSW 7 11 4 6 1023.6 1023.5 7.0
26/08:30pm 11.3 9.4 9.2 87 1.1 WSW 9 11 5 6 1023.6 1023.5 7.0
26/08:00pm 11.1 9.7 8.7 85 1.2 WSW 6 7 3 4 1023.4 1023.4 7.0
26/07:30pm 11.4 10.4 8.8 84 1.3 W 4 4 2 2 1023.4 1023.4 7.0
26/07:00pm 11.3 10.3 8.7 84 1.3 W 4 6 2 3 1023.1 1023.1 7.0
26/06:30pm 10.9 9.3 7.8 81 1.5 WSW 6 6 3 3 1022.9 1022.9 7.0
26/06:00pm 11.3 10.2 8.5 83 1.4 WSW 4 6 2 3 1022.7 1022.7 7.0
26/05:30pm 11.5 10.0 8.5 82 1.5 SW 6 11 3 6 1022.5 1022.5 7.0
26/05:00pm 11.4 9.8 8.8 84 1.3 SSW 7 11 4 6 1022.4 1022.4 7.0
26/04:30pm 11.5 10.1 9.4 87 1.1 SSW 7 11 4 6 1022.5 1022.5 7.0
26/04:00pm 11.7 9.5 9.4 86 1.2 S 11 15 6 8 1022.4 1022.4 7.0
26/03:30pm 12.1 10.8 9.3 83 1.4 NE 6 11 3 6 1022.3 1022.3 7.0
26/03:00pm 12.6 11.3 9.2 80 1.7 ESE 6 13 3 7 1022.3 1022.3 7.0
26/02:30pm 12.1 10.3 9.3 83 1.4 ENE 9 13 5 7 1022.4 1022.4 7.0
26/02:00pm 11.7 9.6 9.8 88 1.0 E 11 17 6 9 1022.6 1022.6 7.0
26/01:30pm 11.5 9.6 9.2 86 1.2 E 9 15 5 8 1022.9 1022.9 6.8
26/01:00pm 12.3 11.0 9.9 85 1.2 SE 7 17 4 9 1022.9 1022.9 6.8
26/12:30pm 11.6 9.7 9.2 85 1.2 SE 9 13 5 7 1023.1 1023.1 6.8
26/12:00pm 11.9 10.1 9.6 86 1.2 SSE 9 17 5 9 1023.3 1023.3 6.8
26/11:30am 11.7 8.7 9.3 85 1.2 SSE 15 20 8 11 1023.7 1023.6 6.8
26/11:00am 11.4 9.4 10.1 92 0.7 S 11 20 6 11 1023.9 1023.8 6.8
26/10:30am 10.9 8.4 9.8 93 0.6 SSW 13 19 7 10 1024.1 1024.0 6.8
26/10:00am 10.8 8.3 9.6 92 0.6 S 13 20 7 11 1024.0 1023.9 5.4
26/09:30am 10.9 8.3 9.5 91 0.7 S 13 24 7 13 1024.1 1024.0 1.6
26/09:00am 11.3 6.4 10.0 92 0.7 SW 26 43 14 23 1023.2 1023.2 0.0
26/08:30am 11.1 7.0 8.8 86 1.1 SW 20 33 11 18 1023.2 1023.2 0.0
26/08:00am 11.7 7.0 9.1 84 1.3 SW 24 35 13 19 1022.8 1022.8 0.0
26/07:30am 12.6 9.9 10.3 86 1.2 SW 15 22 8 12 1022.7 1022.7 0.0
26/07:00am 12.7 10.4 10.4 86 1.2 SW 13 19 7 10 1023.0 1023.0 0.0
26/06:30am 12.8 10.5 10.5 86 1.2 SW 13 20 7 11 1022.6 1022.6 0.0
26/06:00am 12.8 11.0 10.9 88 1.0 SSW 11 17 6 9 1022.3 1022.3 0.0
26/05:30am 12.9 11.8 10.6 86 1.2 SSW 7 11 4 6 1022.2 1022.2 0.0
26/05:00am 13.1 12.8 10.1 82 1.5 ESE 2 4 1 2 1022.2 1022.2 0.0
26/04:30am 12.5 11.5 9.0 79 1.8 ESE 4 4 2 2 1022.2 1022.2 0.0
26/04:00am 12.6 12.0 8.9 78 1.9 E 2 4 1 2 1022.5 1022.5 0.0
26/03:30am 13.0 11.7 9.3 78 1.9 ESE 6 11 3 6 1022.6 1022.6 0.0
26/03:00am 12.5 12.1 8.2 75 2.1 CALM 0 0 0 0 1022.9 1022.9 0.0
26/02:30am 12.8 12.1 8.5 75 2.1 NW 2 4 1 2 1023.0 1023.0 0.0
26/02:00am 12.9 12.3 8.8 76 2.1 NW 2 7 1 4 1023.3 1023.3 0.0
26/01:30am 12.7 11.2 9.2 79 1.8 N 7 11 4 6 1023.9 1023.8 0.0
26/01:00am 12.6 11.5 8.5 76 2.0 NNE 4 4 2 2 1024.2 1024.1 0.0
26/12:30am 12.3 10.8 8.6 78 1.8 E 6 7 3 4 1024.4 1024.3 0.0
26/12:00am 12.6 10.2 8.5 76 2.0 NE 11 17 6 9 1024.8 1024.7 0.0
 
Date/Time
EST
Temp
°C
App
Temp
°C
Dew
Point
°C
Rel
Hum
%
Delta-T
°C
Wind Press
QNH
hPa
Press
MSL
hPa
Rain since
9am
mm
Dir  Spd
km/h
Gust
km/h
Spd
kts
Gust
kts
25/11:30pm 12.8 11.7 8.3 74 2.2 NNW 4 7 2 4 1025.1 1025.0 0.0
25/11:00pm 13.6 11.9 8.2 70 2.7 NNE 7 13 4 7 1025.2 1025.1 0.0
25/10:30pm 13.2 10.8 7.2 67 2.9 NE 9 11 5 6 1025.3 1025.2 0.0
25/10:00pm 13.3 11.3 7.1 66 3.0 NE 7 9 4 5 1025.4 1025.3 0.0
25/09:30pm 13.6 11.3 7.4 66 3.0 NNE 9 13 5 7 1025.5 1025.4 0.0
25/09:00pm 13.7 11.8 7.5 66 3.0 ENE 7 11 4 6 1025.6 1025.5 0.0
25/08:30pm 13.4 11.7 7.4 67 2.9 ENE 6 9 3 5 1025.7 1025.6 0.0
25/08:00pm 13.6 11.6 7.2 65 3.1 NE 7 11 4 6 1025.6 1025.5 0.0
25/07:30pm 13.4 11.4 7.2 66 3.0 NE 7 11 4 6 1025.4 1025.3 0.0
25/07:00pm 13.5 11.2 7.5 67 2.9 NE 9 15 5 8 1025.3 1025.2 0.0
25/06:30pm 13.2 10.5 7.2 67 2.9 NE 11 15 6 8 1025.0 1024.9 0.0
25/06:00pm 13.4 11.1 7.4 67 2.9 ENE 9 15 5 8 1024.8 1024.7 0.0
25/05:30pm 13.5 10.7 7.1 65 3.1 ENE 11 19 6 10 1024.7 1024.6 0.0
25/05:00pm 13.9 10.5 7.7 66 3.1 ENE 15 20 8 11 1024.4 1024.3 0.0
25/04:30pm 14.4 11.1 8.1 66 3.2 ENE 15 20 8 11 1024.6 1024.5 0.0
25/04:00pm 14.5 11.2 8.2 66 3.1 ENE 15 20 8 11 1024.5 1024.4 0.0
25/03:30pm 14.9 11.5 7.5 61 3.7 E 15 20 8 11 1024.5 1024.4 0.0
25/03:00pm 15.3 11.3 6.8 57 4.2 ENE 17 22 9 12 1024.7 1024.6 0.0
25/02:30pm 15.3 11.6 6.1 54 4.5 ENE 15 22 8 12 1025.0 1024.9 0.0
25/02:00pm 15.4 12.1 6.4 55 4.4 ENE 13 20 7 11 1025.3 1025.2 0.0
25/01:30pm 15.2 12.1 7.3 59 3.9 ESE 13 19 7 10 1025.7 1025.6 0.0
25/01:00pm 14.2 11.2 7.7 65 3.2 ESE 13 19 7 10 1026.1 1026.0 0.0
25/12:30pm 14.2 11.6 7.9 66 3.1 ESE 11 17 6 9 1026.4 1026.3 0.0
25/12:00pm 14.7 12.2 8.4 66 3.2 SE 11 15 6 8 1026.9 1026.8 0.0
25/11:30am 14.3 11.5 8.7 69 2.8 SSE 13 17 7 9 1027.5 1027.4 0.0
25/11:00am 14.0 11.5 8.4 69 2.8 SSE 11 17 6 9 1027.9 1027.8 0.0
25/10:30am 14.1 11.1 7.9 66 3.1 S 13 19 7 10 1028.2 1028.1 0.0
25/10:00am 13.3 9.9 7.5 68 2.8 S 15 24 8 13 1028.6 1028.5 0.0
25/09:30am 13.6 10.3 8.0 69 2.8 S 15 20 8 11 1028.7 1028.6 0.0
25/09:00am 13.6 11.0 7.6 67 2.9 S 11 17 6 9 1028.7 1028.6 1.8
25/08:30am 13.0 10.3 7.2 68 2.8 SW 11 20 6 11 1028.8 1028.7 1.8
25/08:00am 12.4 8.5 7.3 71 2.5 SSW 17 24 9 13 1028.8 1028.7 1.8
25/07:30am 12.1 9.1 7.6 74 2.2 SSW 13 22 7 12 1028.6 1028.5 1.8
25/07:00am 11.6 10.3 7.7 77 1.9 W 4 7 2 4 1028.6 1028.5 1.8
25/06:30am 11.4 9.1 7.3 76 2.0 SSW 9 11 5 6 1028.3 1028.2 1.8
25/06:00am 11.1 9.7 7.4 78 1.8 WSW 4 6 2 3 1028.1 1028.0 1.8
25/05:30am 10.7 9.5 8.1 84 1.3 WSW 4 6 2 3 1027.9 1027.8 1.8
25/05:00am 10.7 10.0 8.5 86 1.1 W 2 4 1 2 1027.9 1027.8 1.8
25/04:30am 10.7 9.8 7.9 83 1.4 W 2 6 1 3 1028.0 1027.9 1.8
25/04:00am 10.7 9.8 7.6 81 1.5 W 2 4 1 2 1027.8 1027.7 1.8
25/03:30am 10.4 9.2 8.0 85 1.2 W 4 7 2 4 1027.7 1027.6 1.8
25/03:00am 10.6 8.9 8.2 85 1.2 WSW 7 11 4 6 1027.8 1027.7 1.8
25/02:30am 10.6 8.9 8.5 87 1.0 WSW 7 9 4 5 1027.9 1027.8 1.8
25/02:00am 10.4 8.7 8.3 87 1.0 WSW 7 9 4 5 1028.1 1028.0 1.8
25/01:30am 11.0 10.0 8.9 87 1.0 WSW 4 7 2 4 1028.4 1028.3 1.8
25/01:00am 11.1 10.5 9.0 87 1.0 W 2 4 1 2 1028.8 1028.7 1.8
25/12:30am 11.2 9.9 9.1 87 1.1 WSW 6 7 3 4 1029.1 1029.0 1.8
25/12:00am 11.2 9.6 8.8 85 1.2 WSW 7 11 4 6 1029.2 1029.1 1.8
 
Date/Time
EST
Temp
°C
App
Temp
°C
Dew
Point
°C
Rel
Hum
%
Delta-T
°C
Wind Press
QNH
hPa
Press
MSL
hPa
Rain since
9am
mm
Dir  Spd
km/h
Gust
km/h
Spd
kts
Gust
kts
24/11:30pm 11.2 9.6 8.8 85 1.2 WSW 7 9 4 5 1029.2 1029.1 1.8
24/11:00pm 11.3 10.2 8.5 83 1.4 WSW 4 6 2 3 1029.3 1029.2 1.8
24/10:30pm 11.1 10.0 8.5 84 1.3 WSW 4 7 2 4 1029.4 1029.3 1.8
24/10:00pm 10.9 8.9 8.5 85 1.2 SW 9 15 5 8 1029.5 1029.4 1.8
24/09:30pm 11.5 10.1 8.7 83 1.4 SW 6 7 3 4 1029.7 1029.6 1.8
24/09:00pm 11.4 9.8 7.9 79 1.7 SW 6 7 3 4 1029.9 1029.8 1.8
24/08:30pm 11.3 9.6 8.2 81 1.5 SSW 7 15 4 8 1030.1 1030.0 1.8
24/08:00pm 11.5 9.1 7.0 74 2.1 SW 9 15 5 8 1030.0 1029.9 1.8
24/07:30pm 11.5 9.3 8.0 79 1.7 S 9 19 5 10 1030.0 1029.9 1.8
24/07:00pm 12.1 9.9 6.2 67 2.8 SSE 7 11 4 6 1029.8 1029.7 1.8
24/06:30pm 12.1 9.1 5.9 66 2.9 SSE 11 17 6 9 1029.5 1029.4 1.8
24/06:00pm 11.7 9.2 6.4 70 2.5 SSE 9 15 5 8 1029.5 1029.4 1.8
24/05:30pm 11.8 9.2 7.7 76 2.0 S 11 28 6 15 1029.3 1029.2 1.8
24/05:00pm 11.0 7.7 7.9 81 1.5 SSW 15 22 8 12 1029.5 1029.4 1.8
24/04:30pm 10.8 8.0 8.6 86 1.1 SSW 13 19 7 10 1029.2 1029.1 1.8
24/04:00pm 11.0 8.0 9.3 89 0.8 SSW 15 22 8 12 1029.5 1029.4 1.8
24/03:30pm 11.3 9.0 8.9 85 1.2 S 11 19 6 10 1029.7 1029.6 1.8
24/03:00pm 10.9 6.8 8.8 87 1.0 S 20 30 11 16 1029.7 1029.6 1.8
24/02:30pm 12.7 9.7 7.6 71 2.5 SSE 13 19 7 10 1029.9 1029.8 1.8
24/02:00pm 12.2 9.0 9.8 85 1.2 S 17 28 9 15 1030.1 1030.0 1.8
24/01:30pm 11.1 7.6 8.8 86 1.1 SSW 17 24 9 13 1030.2 1030.1 1.8
24/01:00pm 11.5 7.8 9.6 88 1.0 S 19 28 10 15 1030.6 1030.5 1.8
24/12:30pm 10.6 6.5 8.5 87 1.0 S 20 32 11 17 1030.7 1030.6 1.4
24/12:00pm 10.9 6.8 8.5 85 1.2 S 20 37 11 20 1030.7 1030.6 1.0
24/11:30am 10.9 6.1 8.7 86 1.1 SSW 24 33 13 18 1031.0 1030.9 1.0
24/11:00am 10.7 5.4 8.6 87 1.0 SSW 26 37 14 20 1031.0 1030.9 1.0
24/10:30am 11.0 7.5 8.9 87 1.0 SW 17 26 9 14 1031.2 1031.1 0.8
24/10:00am 10.2 6.3 8.8 91 0.7 SW 19 26 10 14 1031.8 1031.8 0.8
24/09:30am 10.0 5.1 8.4 90 0.8 SSW 24 35 13 19 1031.4 1031.4 0.4
24/09:00am 11.2 6.4 8.8 85 1.2 SSW 24 35 13 19 1031.2 1031.1 0.8
24/08:30am 11.6 6.7 8.6 82 1.5 SSW 24 37 13 20 1030.9 1030.8 0.6
24/08:00am 11.4 4.9 6.3 71 2.4 SSW 30 41 16 22 1030.5 1030.4 0.6
24/07:30am 11.3 5.8 5.8 69 2.6 SSW 24 35 13 19 1030.0 1029.9 0.6
24/07:00am 11.2 4.9 5.7 69 2.5 SSW 28 41 15 22 1029.9 1029.8 0.6
24/06:30am 11.1 5.1 5.4 68 2.6 SSW 26 41 14 22 1029.5 1029.4 0.6
24/06:00am 11.1 5.5 5.2 67 2.7 SSW 24 37 13 20 1029.6 1029.5 0.6
24/05:30am 11.0 5.3 4.9 66 2.8 SSW 24 37 13 20 1029.0 1028.9 0.6
24/05:00am 11.0 4.4 4.2 63 3.0 SSW 28 44 15 24 1028.6 1028.5 0.6
24/04:30am 11.1 4.9 4.1 62 3.1 SSW 26 39 14 21 1028.5 1028.4 0.6
24/04:00am 11.2 4.7 4.9 65 2.9 SSW 28 41 15 22 1028.1 1028.0 0.6
24/03:30am 11.3 4.8 4.5 63 3.1 SSW 28 44 15 24 1028.1 1028.0 0.6
24/03:00am 11.4 5.0 5.1 65 2.9 SSW 28 43 15 23 1028.3 1028.2 0.6
24/02:30am 11.6 4.8 5.3 65 2.9 SSW 30 41 16 22 1028.6 1028.5 0.6
24/02:00am 11.6 4.8 5.0 64 3.0 SSW 30 43 16 23 1028.7 1028.6 0.6
24/01:30am 11.7 4.5 4.9 63 3.1 SSW 32 50 17 27 1029.2 1029.1 0.6
24/01:00am 12.0 4.8 5.2 63 3.1 SSW 32 54 17 29 1029.3 1029.2 0.6
24/12:56am 12.1 5.8 5.5 64 3.1 SSW 28 46 15 25 1029.4 1029.3 0.6
24/12:30am 11.9 5.1 5.1 63 3.1 SSW 30 43 16 23 1029.3 1029.2 0.6
24/12:05am 12.2 5.2 5.8 65 3.0 SSW 32 52 17 28 1029.4 1029.3 0.6
24/12:00am 12.1 5.3 5.3 63 3.1 SSW 30 46 16 25 1029.1 1029.0 0.6
 
Date/Time
EST
Temp
°C
App
Temp
°C
Dew
Point
°C
Rel
Hum
%
Delta-T
°C
Wind Press
QNH
hPa
Press
MSL
hPa
Rain since
9am
mm
Dir  Spd
km/h
Gust
km/h
Spd
kts
Gust
kts
23/11:30pm 12.1 4.4 5.3 63 3.2 SSW 35 54 19 29 1029.0 1028.9 0.6
23/11:00pm 11.9 5.6 5.8 66 2.8 SSW 28 46 15 25 1029.5 1029.4 0.6
23/10:38pm 12.3 6.3 7.2 71 2.5 SSW 28 46 15 25 1029.4 1029.3 0.6

Other Formats:

Comma delimited format used in spreadsheet applications
http://www.bom.gov.au/fwo/IDN60801/IDN60801.95940.axf

JavaScript Object Notation format (JSON) in row-major order
http://www.bom.gov.au/fwo/IDN60801/IDN60801.95940.json